Time;durP1;ratioP1;P1;durP2;ratioP2;P2;SDS_P1;SDS_P2;PMS_P1;PMS_P2;Temp;Humidity;BMP_temperature;BMP_pressure;BME280_temperature;BME280_humidity;BME280_pressure;Samples;Min_cycle;Max_cycle;Signal;HPM_P1;HPM_P2
2023/03/16 00:01:36;;;;;;;;;;;16.20;37.80;;;;;;5097559;28;19944;-69
2023/03/16 00:04:01;;;;;;;;;;;16.20;37.80;;;;;;5131944;27;19943;-71
2023/03/16 00:06:27;;;;;;;;;;;16.20;37.80;;;;;;5097571;28;19924;-71
2023/03/16 00:08:57;;;;;;;;;;;16.20;37.80;;;;;;5131452;27;19920;-71
2023/03/16 00:11:24;;;;;;;;;;;16.20;37.80;;;;;;5097218;28;19927;-69
2023/03/16 00:13:50;;;;;;;;;;;16.20;37.80;;;;;;5097352;28;19919;-69
2023/03/16 00:16:16;;;;;;;;;;;16.20;37.80;;;;;;5115491;28;19920;-71
2023/03/16 00:18:41;;;;;;;;;;;16.20;37.80;;;;;;5097270;28;19928;-70
2023/03/16 00:21:07;;;;;;;;;;;16.20;37.80;;;;;;5131142;27;19920;-72
2023/03/16 00:23:34;;;;;;;;;;;16.20;37.80;;;;;;5097504;28;19973;-71
2023/03/16 00:26:02;;;;;;;;;;;16.20;37.80;;;;;;5097208;28;19924;-71
2023/03/16 00:28:33;;;;;;;;;;;16.20;37.90;;;;;;5115284;28;19920;-69
2023/03/16 00:30:59;;;;;;;;;;;16.20;37.90;;;;;;5097248;28;19959;-71
2023/03/16 00:33:25;;;;;;;;;;;16.10;37.80;;;;;;5097200;28;19926;-71
2023/03/16 00:36:00;;;;;;;;;;;16.20;38.30;;;;;;5096914;28;19931;-72
2023/03/16 00:38:27;;;;;;;;;;;16.10;37.80;;;;;;5096914;28;19924;-73
2023/03/16 00:40:52;;;;;;;;;;;16.20;37.80;;;;;;5096788;28;19919;-72
2023/03/16 00:43:18;;;;;;;;;;;16.40;37.60;;;;;;5131331;27;19927;-71
2023/03/16 00:45:44;;;;;;;;;;;16.50;37.40;;;;;;5096855;28;19955;-71
2023/03/16 00:48:10;;;;;;;;;;;16.70;37.10;;;;;;5096923;28;19919;-71
2023/03/16 00:50:36;;;;;;;;;;;17.00;36.90;;;;;;5096525;28;19920;-71
2023/03/16 00:53:07;;;;;;;;;;;17.40;36.50;;;;;;5114906;28;19928;-71
2023/03/16 00:55:32;;;;;;;;;;;17.80;35.90;;;;;;5130459;27;20371;-68
2023/03/16 00:57:58;;;;;;;;;;;18.40;35.20;;;;;;5096242;28;19928;-71
2023/03/16 01:00:27;;;;;;;;;;;18.80;34.40;;;;;;5096790;28;20422;-71
2023/03/16 01:02:52;;;;;;;;;;;19.30;34.00;;;;;;5096391;28;19920;-71
2023/03/16 01:05:18;;;;;;;;;;;19.80;33.30;;;;;;5096748;28;19920;-70
2023/03/16 01:07:43;;;;;;;;;;;20.20;32.60;;;;;;5096070;28;20171;-71
2023/03/16 01:10:09;;;;;;;;;;;20.50;32.40;;;;;;5114521;28;20025;-72
2023/03/16 01:12:35;;;;;;;;;;;20.80;31.90;;;;;;5096359;28;20378;-71
2023/03/16 01:15:00;;;;;;;;;;;21.10;31.40;;;;;;5096609;28;19967;-72
2023/03/16 01:17:26;;;;;;;;;;;21.30;31.10;;;;;;5114295;28;20081;-71
2023/03/16 01:19:52;;;;;;;;;;;21.50;30.90;;;;;;5095132;28;19985;-69
2023/03/16 01:22:17;;;;;;;;;;;21.60;30.70;;;;;;5114171;28;19920;-71
2023/03/16 01:24:44;;;;;;;;;;;21.80;30.60;;;;;;5096457;28;20001;-69
2023/03/16 01:27:11;;;;;;;;;;;21.90;30.40;;;;;;5095961;28;19965;-69
2023/03/16 01:29:38;;;;;;;;;;;22.10;30.20;;;;;;5114173;28;19973;-71
2023/03/16 01:32:05;;;;;;;;;;;22.20;30.00;;;;;;5095962;28;20367;-73
2023/03/16 01:34:31;;;;;;;;;;;22.20;30.00;;;;;;5096084;28;20338;-69
2023/03/16 01:36:56;;;;;;;;;;;22.30;29.90;;;;;;5096025;28;19919;-71
2023/03/16 01:39:22;;;;;;;;;;;22.30;29.80;;;;;;5095559;28;20374;-71
2023/03/16 01:41:48;;;;;;;;;;;22.40;29.80;;;;;;5095517;28;19962;-69
2023/03/16 01:44:15;;;;;;;;;;;22.40;29.70;;;;;;5113850;28;20021;-71
2023/03/16 01:46:43;;;;;;;;;;;22.40;29.80;;;;;;5114026;28;19930;-71
2023/03/16 01:49:19;;;;;;;;;;;22.40;29.70;;;;;;5095506;28;19926;-69
2023/03/16 01:51:50;;;;;;;;;;;22.40;29.70;;;;;;5095767;28;19920;-72
2023/03/16 01:57:15;;;;;;;;;;;22.30;30.00;;;;;;5089790;28;19916;-69
2023/03/16 01:59:45;;;;;;;;;;;22.20;29.90;;;;;;5088433;28;19928;-69
2023/03/16 02:02:12;;;;;;;;;;;22.10;29.80;;;;;;5088791;28;20486;-73
2023/03/16 02:04:41;;;;;;;;;;;22.00;29.90;;;;;;5088656;28;20018;-70
2023/03/16 02:07:07;;;;;;;;;;;22.00;29.90;;;;;;5088335;28;19943;-69
2023/03/16 02:09:36;;;;;;;;;;;22.00;30.00;;;;;;5088497;28;19927;-72
2023/03/16 02:12:05;;;;;;;;;;;21.90;30.00;;;;;;5088632;28;19921;-72
2023/03/16 02:14:31;;;;;;;;;;;21.90;30.20;;;;;;5088298;28;20073;-71
2023/03/16 02:16:56;;;;;;;;;;;21.80;30.10;;;;;;5089592;28;20188;-69
2023/03/16 02:19:28;;;;;;;;;;;21.80;30.00;;;;;;5088151;28;20330;-73
2023/03/16 02:22:00;;;;;;;;;;;21.80;30.10;;;;;;5089343;28;20015;-69
2023/03/16 02:24:26;;;;;;;;;;;21.80;30.10;;;;;;5088356;28;20332;-71
2023/03/16 02:29:44;;;;;;;;;;;21.80;30.10;;;;;;5089726;28;19919;-71
2023/03/16 02:32:10;;;;;;;;;;;21.80;30.10;;;;;;5088151;28;20287;-72
2023/03/16 02:34:37;;;;;;;;;;;21.80;30.10;;;;;;5087955;28;19920;-69
2023/03/16 02:37:03;;;;;;;;;;;21.80;30.00;;;;;;5087117;28;20405;-71
2023/03/16 02:39:28;;;;;;;;;;;21.90;30.10;;;;;;5088308;28;19921;-70
2023/03/16 02:41:54;;;;;;;;;;;21.90;30.00;;;;;;5088321;28;20027;-69
2023/03/16 02:44:23;;;;;;;;;;;21.90;30.00;;;;;;5089591;28;19927;-71
2023/03/16 02:46:50;;;;;;;;;;;21.90;30.00;;;;;;5088547;28;19920;-71
2023/03/16 02:49:36;;;;;;;;;;;21.90;30.00;;;;;;5088064;28;20028;-71
2023/03/16 02:52:03;;;;;;;;;;;21.90;29.90;;;;;;5105316;28;19947;-71
2023/03/16 02:54:29;;;;;;;;;;;21.90;30.00;;;;;;5088982;28;19921;-71
2023/03/16 02:56:54;;;;;;;;;;;21.90;29.90;;;;;;5088084;28;19928;-68
2023/03/16 02:59:20;;;;;;;;;;;21.90;30.00;;;;;;5071023;28;20422;-68
2023/03/16 03:01:46;;;;;;;;;;;21.80;30.00;;;;;;5105182;28;19944;-72
2023/03/16 03:04:12;;;;;;;;;;;21.90;30.10;;;;;;5088060;28;20386;-69
2023/03/16 03:06:37;;;;;;;;;;;21.80;30.00;;;;;;5088156;28;19925;-70
2023/03/16 03:09:03;;;;;;;;;;;21.80;30.00;;;;;;5087788;28;20422;-70
2023/03/16 03:11:29;;;;;;;;;;;21.70;30.00;;;;;;5088129;28;19920;-69
2023/03/16 03:13:54;;;;;;;;;;;21.60;30.10;;;;;;5087797;28;19949;-68
2023/03/16 03:16:20;;;;;;;;;;;21.50;30.10;;;;;;5087681;28;20002;-73
2023/03/16 03:18:46;;;;;;;;;;;21.50;30.20;;;;;;5104482;28;19924;-71
2023/03/16 03:21:11;;;;;;;;;;;21.40;30.30;;;;;;5089179;28;19924;-72
2023/03/16 03:23:39;;;;;;;;;;;21.40;30.40;;;;;;5088007;28;19960;-71
2023/03/16 03:26:05;;;;;;;;;;;21.40;30.40;;;;;;5087357;28;19921;-71
2023/03/16 03:28:33;;;;;;;;;;;21.40;30.40;;;;;;5087172;28;19931;-71
2023/03/16 03:30:59;;;;;;;;;;;21.50;30.40;;;;;;5088656;28;20399;-70
2023/03/16 03:33:24;;;;;;;;;;;21.50;30.30;;;;;;5087453;28;19924;-71
2023/03/16 03:35:54;;;;;;;;;;;21.60;30.20;;;;;;5087301;28;19927;-71
2023/03/16 03:38:20;;;;;;;;;;;21.60;30.10;;;;;;5087573;28;19959;-69
2023/03/16 03:40:49;;;;;;;;;;;21.70;30.00;;;;;;5074464;28;19972;-71
2023/03/16 03:43:15;;;;;;;;;;;21.80;30.00;;;;;;5073656;28;19920;-68
2023/03/16 03:45:43;;;;;;;;;;;21.90;30.00;;;;;;5073691;28;19921;-71
2023/03/16 03:48:09;;;;;;;;;;;21.90;29.90;;;;;;5073737;28;19925;-71
2023/03/16 03:50:35;;;;;;;;;;;22.00;29.90;;;;;;5073585;28;19950;-71
2023/03/16 03:53:00;;;;;;;;;;;22.00;29.90;;;;;;5073629;28;19921;-71
2023/03/16 03:55:26;;;;;;;;;;;22.00;29.90;;;;;;5074916;28;19927;-71
2023/03/16 03:57:51;;;;;;;;;;;22.00;29.90;;;;;;5074644;28;19925;-69
2023/03/16 04:00:19;;;;;;;;;;;21.90;29.90;;;;;;5073818;28;19925;-70
2023/03/16 04:02:45;;;;;;;;;;;21.90;29.90;;;;;;5073705;28;20279;-71
2023/03/16 04:05:11;;;;;;;;;;;21.80;29.90;;;;;;5074428;28;20003;-71
2023/03/16 04:07:37;;;;;;;;;;;21.80;30.00;;;;;;5073638;28;19975;-71
2023/03/16 04:10:03;;;;;;;;;;;21.80;30.00;;;;;;5073104;28;19956;-71
2023/03/16 04:12:28;;;;;;;;;;;21.70;30.00;;;;;;5073610;28;20017;-71
2023/03/16 04:14:54;;;;;;;;;;;21.60;30.00;;;;;;5073412;28;19920;-70
2023/03/16 04:17:23;;;;;;;;;;;21.60;30.00;;;;;;5073014;28;20408;-69
2023/03/16 04:19:48;;;;;;;;;;;21.50;30.00;;;;;;5073023;28;19935;-71
2023/03/16 04:22:14;;;;;;;;;;;21.50;30.00;;;;;;5072997;28;19925;-72
2023/03/16 04:24:41;;;;;;;;;;;21.50;30.20;;;;;;5073118;28;19920;-70
2023/03/16 04:27:07;;;;;;;;;;;21.50;30.20;;;;;;5073655;28;19920;-70
2023/03/16 04:29:33;;;;;;;;;;;21.50;30.20;;;;;;5076101;28;19920;-68
2023/03/16 04:31:58;;;;;;;;;;;21.50;30.20;;;;;;5076233;28;19963;-71
2023/03/16 04:34:24;;;;;;;;;;;21.50;30.20;;;;;;5094618;28;19920;-71
2023/03/16 04:36:51;;;;;;;;;;;21.50;30.20;;;;;;5094307;28;20287;-73
2023/03/16 04:39:16;;;;;;;;;;;21.50;30.10;;;;;;5075945;28;20019;-68
2023/03/16 04:41:42;;;;;;;;;;;21.50;30.00;;;;;;5076467;28;20019;-71
2023/03/16 04:44:08;;;;;;;;;;;21.60;30.10;;;;;;5076329;28;20446;-68
2023/03/16 04:46:34;;;;;;;;;;;21.60;30.10;;;;;;5075679;28;19927;-68
2023/03/16 04:49:00;;;;;;;;;;;21.60;30.00;;;;;;5076180;28;19976;-70
2023/03/16 04:51:25;;;;;;;;;;;21.70;30.10;;;;;;5092898;28;20439;-71
2023/03/16 04:53:51;;;;;;;;;;;21.70;30.00;;;;;;5075807;28;19920;-69
2023/03/16 04:56:17;;;;;;;;;;;21.70;30.00;;;;;;5075658;28;19920;-68
2023/03/16 04:58:44;;;;;;;;;;;21.70;30.00;;;;;;5075614;28;19924;-71
2023/03/16 05:01:09;;;;;;;;;;;21.80;30.00;;;;;;5093645;28;20003;-70
2023/03/16 05:03:35;;;;;;;;;;;21.70;30.00;;;;;;5075520;28;20019;-71
2023/03/16 05:06:00;;;;;;;;;;;21.70;30.00;;;;;;5093660;28;20249;-69
2023/03/16 05:08:26;;;;;;;;;;;21.70;30.00;;;;;;5093737;28;19920;-69
2023/03/16 05:10:55;;;;;;;;;;;21.70;30.00;;;;;;5075636;28;20434;-68
2023/03/16 05:13:20;;;;;;;;;;;21.70;30.00;;;;;;5075753;28;20287;-69
2023/03/16 05:15:46;;;;;;;;;;;21.70;30.00;;;;;;5075130;28;20010;-71
2023/03/16 05:18:12;;;;;;;;;;;21.70;30.00;;;;;;5075263;28;19989;-71
2023/03/16 05:20:37;;;;;;;;;;;21.70;30.00;;;;;;5075323;28;19924;-69
2023/03/16 05:23:03;;;;;;;;;;;21.70;30.00;;;;;;5075248;28;19940;-71
2023/03/16 05:25:28;;;;;;;;;;;21.70;30.00;;;;;;5075087;28;19920;-69
2023/03/16 05:27:56;;;;;;;;;;;21.70;30.00;;;;;;5075010;28;19928;-69
2023/03/16 05:30:21;;;;;;;;;;;21.70;30.00;;;;;;5075350;28;20276;-69
2023/03/16 05:32:47;;;;;;;;;;;21.70;30.00;;;;;;5093050;28;19954;-69
2023/03/16 05:35:13;;;;;;;;;;;21.80;30.00;;;;;;5074866;28;19930;-71
2023/03/16 05:37:39;;;;;;;;;;;21.80;29.90;;;;;;5075195;28;19932;-70
2023/03/16 05:40:21;;;;;;;;;;;21.80;30.00;;;;;;5074791;28;20298;-68
2023/03/16 05:42:48;;;;;;;;;;;21.80;29.90;;;;;;5075013;28;20570;-68
2023/03/16 05:45:14;;;;;;;;;;;21.80;29.90;;;;;;5074763;28;20440;-68
2023/03/16 05:47:40;;;;;;;;;;;21.80;29.90;;;;;;5074687;28;19927;-68
2023/03/16 05:50:07;;;;;;;;;;;21.80;29.90;;;;;;5074948;28;19920;-69
2023/03/16 05:52:33;;;;;;;;;;;21.80;29.90;;;;;;5074444;28;19927;-70
2023/03/16 05:54:59;;;;;;;;;;;21.80;29.90;;;;;;5072969;28;19936;-70
2023/03/16 05:57:24;;;;;;;;;;;21.70;29.90;;;;;;5074538;28;19989;-69
2023/03/16 05:59:50;;;;;;;;;;;21.80;30.00;;;;;;5073953;28;20287;-69
2023/03/16 06:02:15;;;;;;;;;;;21.80;29.90;;;;;;5074168;28;19924;-71
2023/03/16 06:04:41;;;;;;;;;;;21.70;29.90;;;;;;5092575;28;19920;-70
2023/03/16 06:07:06;;;;;;;;;;;21.80;30.00;;;;;;5091269;28;20561;-68
2023/03/16 06:09:32;;;;;;;;;;;21.80;29.80;;;;;;5091161;28;19969;-69
2023/03/16 06:11:57;;;;;;;;;;;21.80;29.90;;;;;;5091251;28;19921;-70
2023/03/16 06:14:26;;;;;;;;;;;21.70;29.90;;;;;;5092445;28;20285;-69
2023/03/16 06:16:52;;;;;;;;;;;21.70;30.50;;;;;;5074411;28;19920;-68
2023/03/16 06:19:17;;;;;;;;;;;21.70;29.90;;;;;;5074151;28;19984;-71
2023/03/16 06:21:43;;;;;;;;;;;21.70;29.80;;;;;;5074627;28;20276;-71
2023/03/16 06:24:08;;;;;;;;;;;21.70;29.90;;;;;;5074270;28;20470;-69
2023/03/16 06:26:34;;;;;;;;;;;21.70;30.00;;;;;;5074185;28;19920;-70
2023/03/16 06:29:00;;;;;;;;;;;21.70;30.50;;;;;;5073998;28;19931;-73
2023/03/16 06:31:26;;;;;;;;;;;21.70;29.80;;;;;;5074693;28;19920;-69
2023/03/16 06:33:51;;;;;;;;;;;21.70;29.80;;;;;;5074056;28;20011;-68
2023/03/16 06:36:17;;;;;;;;;;;21.70;29.80;;;;;;5072010;28;19946;-72
2023/03/16 06:38:43;;;;;;;;;;;21.70;30.10;;;;;;5072307;28;19924;-68
2023/03/16 06:41:09;;;;;;;;;;;21.70;30.30;;;;;;5073205;28;19926;-70
2023/03/16 06:43:37;;;;;;;;;;;21.50;30.20;;;;;;5073259;28;20333;-63
2023/03/16 06:46:03;;;;;;;;;;;21.40;30.30;;;;;;5090430;28;20458;-70
2023/03/16 06:48:29;;;;;;;;;;;21.40;30.30;;;;;;5091674;28;19995;-65
2023/03/16 06:50:54;;;;;;;;;;;21.30;30.30;;;;;;5090230;28;19920;-66
2023/03/16 06:53:20;;;;;;;;;;;21.40;30.60;;;;;;5091412;28;19928;-66
2023/03/16 06:55:46;;;;;;;;;;;21.40;30.60;;;;;;5087703;28;20371;-68
2023/03/16 06:58:12;;;;;;;;;;;21.40;30.60;;;;;;5073432;28;20027;-73
2023/03/16 07:00:37;;;;;;;;;;;21.50;30.50;;;;;;5086201;28;19963;-72
2023/03/16 07:03:03;;;;;;;;;;;21.60;30.50;;;;;;5070592;28;20134;-72
2023/03/16 07:05:28;;;;;;;;;;;21.60;30.30;;;;;;5088807;28;19967;-72
2023/03/16 07:07:54;;;;;;;;;;;21.70;30.40;;;;;;5070593;28;19928;-71
2023/03/16 07:10:19;;;;;;;;;;;21.70;30.40;;;;;;5071591;28;19920;-72
2023/03/16 07:12:45;;;;;;;;;;;21.70;30.50;;;;;;5060447;28;19924;-72
2023/03/16 07:15:11;;;;;;;;;;;21.70;30.50;;;;;;5059843;28;20426;-70
2023/03/16 07:17:37;;;;;;;;;;;21.80;30.30;;;;;;5080288;28;20372;-71
2023/03/16 07:20:04;;;;;;;;;;;21.90;30.30;;;;;;5078597;28;19931;-67
2023/03/16 07:22:31;;;;;;;;;;;21.90;30.30;;;;;;5065747;28;20633;-65
2023/03/16 07:24:56;;;;;;;;;;;22.00;30.20;;;;;;5056020;28;19927;-65
2023/03/16 07:27:23;;;;;;;;;;;22.00;30.10;;;;;;5068332;28;20114;-71
2023/03/16 07:29:49;;;;;;;;;;;22.00;30.10;;;;;;5061631;28;19924;-69
2023/03/16 07:32:14;;;;;;;;;;;21.90;30.00;;;;;;5072816;28;19921;-70
2023/03/16 07:34:43;;;;;;;;;;;21.90;30.10;;;;;;5057309;28;19931;-69
2023/03/16 07:37:09;;;;;;;;;;;22.00;30.30;;;;;;5075902;28;19928;-69
2023/03/16 07:39:34;;;;;;;;;;;22.00;30.40;;;;;;5078167;28;20019;-69
2023/03/16 07:42:00;;;;;;;;;;;21.90;30.50;;;;;;5071207;28;19952;-69
2023/03/16 07:44:27;;;;;;;;;;;21.90;30.60;;;;;;5056078;28;19923;-69
2023/03/16 07:46:52;;;;;;;;;;;21.80;30.80;;;;;;5063098;28;19920;-68
2023/03/16 07:49:18;;;;;;;;;;;21.70;30.60;;;;;;5059491;28;19924;-69
2023/03/16 07:51:44;;;;;;;;;;;21.50;30.30;;;;;;5075629;28;20252;-69
2023/03/16 07:54:09;;;;;;;;;;;21.30;30.40;;;;;;5059923;28;20383;-70
2023/03/16 07:56:35;;;;;;;;;;;21.10;30.70;;;;;;5075178;28;19920;-70
2023/03/16 07:59:01;;;;;;;;;;;21.20;31.00;;;;;;5075363;28;20007;-78
2023/03/16 08:01:27;;;;;;;;;;;21.40;31.10;;;;;;5074512;28;19923;-77
2023/03/16 08:03:52;;;;;;;;;;;21.40;31.00;;;;;;5059469;28;19924;-77
2023/03/16 08:06:21;;;;;;;;;;;21.60;31.00;;;;;;5060364;28;20360;-77
2023/03/16 08:08:47;;;;;;;;;;;21.80;30.80;;;;;;5057975;28;19927;-78
2023/03/16 08:11:13;;;;;;;;;;;22.00;31.40;;;;;;5074615;28;19921;-76
2023/03/16 08:13:42;;;;;;;;;;;22.10;30.50;;;;;;5058825;28;19920;-75
2023/03/16 08:16:09;;;;;;;;;;;22.20;30.30;;;;;;5057589;28;19974;-74
2023/03/16 08:18:35;;;;;;;;;;;22.30;30.30;;;;;;5061139;28;19972;-74
2023/03/16 08:21:01;;;;;;;;;;;22.30;30.30;;;;;;5056687;28;20329;-75
2023/03/16 08:23:28;;;;;;;;;;;22.30;30.30;;;;;;5054727;28;20363;-71
2023/03/16 08:25:54;;;;;;;;;;;22.20;30.40;;;;;;5075341;28;19924;-70
2023/03/16 08:28:20;;;;;;;;;;;22.00;30.50;;;;;;5074187;28;19960;-70
2023/03/16 08:30:48;;;;;;;;;;;21.90;30.80;;;;;;5057001;28;20401;-77
2023/03/16 08:33:13;;;;;;;;;;;21.60;31.00;;;;;;5073745;28;19924;-77
2023/03/16 08:35:42;;;;;;;;;;;21.50;31.20;;;;;;5061998;28;19920;-74
2023/03/16 08:38:08;;;;;;;;;;;21.50;31.30;;;;;;5073551;28;20081;-75
2023/03/16 08:40:40;;;;;;;;;;;21.50;31.40;;;;;;5058814;28;19932;-76
2023/03/16 08:43:05;;;;;;;;;;;21.60;31.40;;;;;;5074156;28;19924;-74
2023/03/16 08:45:32;;;;;;;;;;;21.70;31.50;;;;;;5057993;28;20405;-74
2023/03/16 08:47:58;;;;;;;;;;;21.80;31.40;;;;;;5059671;28;19920;-77
2023/03/16 08:50:24;;;;;;;;;;;21.80;31.40;;;;;;5058180;28;20295;-76
2023/03/16 08:52:49;;;;;;;;;;;21.80;31.30;;;;;;5069118;28;19923;-78
2023/03/16 08:55:18;;;;;;;;;;;21.90;31.40;;;;;;5062080;28;19939;-80
2023/03/16 08:57:45;;;;;;;;;;;21.90;31.30;;;;;;5058261;28;19929;-77
2023/03/16 09:00:13;;;;;;;;;;;21.90;31.20;;;;;;5060233;28;19970;-71
2023/03/16 09:02:41;;;;;;;;;;;22.00;32.00;;;;;;5058955;28;19942;-78
2023/03/16 09:05:07;;;;;;;;;;;22.00;31.20;;;;;;5057911;28;20363;-74
2023/03/16 09:07:35;;;;;;;;;;;22.10;31.20;;;;;;5076273;28;19924;-79
2023/03/16 09:10:01;;;;;;;;;;;22.10;31.20;;;;;;5056732;28;20402;-74
2023/03/16 09:12:27;;;;;;;;;;;22.10;31.10;;;;;;5061328;28;19924;-73
2023/03/16 09:14:53;;;;;;;;;;;22.10;31.10;;;;;;5057683;28;19955;-75
2023/03/16 09:17:19;;;;;;;;;;;22.10;31.10;;;;;;5077926;28;20368;-73
2023/03/16 09:19:45;;;;;;;;;;;22.20;31.10;;;;;;5056322;28;19925;-75
2023/03/16 09:22:11;;;;;;;;;;;22.20;31.20;;;;;;5076380;28;20280;-72
2023/03/16 09:24:37;;;;;;;;;;;22.20;31.00;;;;;;5075202;28;19967;-70
2023/03/16 09:27:04;;;;;;;;;;;22.20;31.20;;;;;;5065913;28;20294;-75
2023/03/16 09:29:29;;;;;;;;;;;22.10;31.20;;;;;;5058163;28;19976;-77
2023/03/16 09:31:55;;;;;;;;;;;22.00;31.20;;;;;;5036193;28;19920;-71
2023/03/16 09:34:21;;;;;;;;;;;22.00;31.40;;;;;;5037968;28;19924;-68
2023/03/16 09:36:47;;;;;;;;;;;22.00;31.40;;;;;;5052619;28;19921;-72
2023/03/16 09:39:13;;;;;;;;;;;22.00;32.10;;;;;;5035644;28;19929;-75
2023/03/16 09:41:58;;;;;;;;;;;22.00;31.90;;;;;;5049543;28;20383;-70
2023/03/16 09:44:32;;;;;;;;;;;22.00;32.20;;;;;;5036966;28;20035;-73
2023/03/16 09:46:59;;;;;;;;;;;22.00;32.30;;;;;;5033841;28;19947;-74
2023/03/16 09:49:27;;;;;;;;;;;21.90;32.60;;;;;;5036071;28;19931;-77
2023/03/16 09:51:57;;;;;;;;;;;21.90;33.40;;;;;;5049340;28;19929;-74
2023/03/16 09:54:31;;;;;;;;;;;21.90;32.90;;;;;;5035350;28;20321;-74
2023/03/16 09:56:57;;;;;;;;;;;21.90;33.00;;;;;;5051960;28;19931;-73
2023/03/16 09:59:23;;;;;;;;;;;21.90;33.20;;;;;;5034362;28;20509;-68
2023/03/16 10:04:36;;;;;;;;;;;21.90;34.20;;;;;;5089988;27;19920;-68
2023/03/16 10:12:27;;;;;;;;;;;21.40;35.40;;;;;;5072804;27;19928;-68
2023/03/16 10:15:10;;;;;;;;;;;21.30;35.30;;;;;;5061800;28;20426;-73
2023/03/16 10:20:21;;;;;;;;;;;21.30;35.40;;;;;;5093223;27;19931;-67
2023/03/16 10:22:49;;;;;;;;;;;21.30;35.10;;;;;;5075586;28;19966;-70
2023/03/16 10:27:59;;;;;;;;;;;21.40;35.80;;;;;;5093986;27;19924;-70
2023/03/16 10:30:27;;;;;;;;;;;21.50;36.10;;;;;;5081496;28;19935;-72
2023/03/16 10:32:54;;;;;;;;;;;21.50;36.60;;;;;;5072735;28;19931;-71
2023/03/16 10:35:27;;;;;;;;;;;21.50;36.00;;;;;;5112689;27;20450;-69
2023/03/16 10:37:53;;;;;;;;;;;21.60;36.10;;;;;;5076435;28;19928;-71
2023/03/16 10:40:19;;;;;;;;;;;21.60;36.30;;;;;;5097387;28;19924;-68
2023/03/16 10:42:45;;;;;;;;;;;21.70;35.90;;;;;;5105359;27;20381;-73
2023/03/16 10:45:28;;;;;;;;;;;21.70;35.80;;;;;;5108465;27;19928;-72
2023/03/16 10:48:04;;;;;;;;;;;21.80;35.70;;;;;;5074259;28;20414;-71
2023/03/16 10:50:30;;;;;;;;;;;21.90;35.70;;;;;;5078082;28;19931;-72
2023/03/16 10:52:56;;;;;;;;;;;22.00;35.70;;;;;;5075829;28;19966;-70
2023/03/16 10:55:23;;;;;;;;;;;22.00;35.70;;;;;;5078186;28;19932;-71
2023/03/16 10:57:50;;;;;;;;;;;22.10;35.60;;;;;;5111977;27;19924;-71
2023/03/16 11:00:20;;;;;;;;;;;22.10;35.60;;;;;;5076318;28;20059;-76
2023/03/16 11:02:48;;;;;;;;;;;22.00;35.70;;;;;;5073294;28;19982;-70
2023/03/16 11:05:24;;;;;;;;;;;21.90;36.00;;;;;;5073763;28;19931;-71
2023/03/16 11:07:53;;;;;;;;;;;21.80;35.60;;;;;;5111756;27;19928;-72
2023/03/16 11:10:24;;;;;;;;;;;21.70;35.70;;;;;;5068579;28;20356;-71
2023/03/16 11:12:50;;;;;;;;;;;21.60;35.70;;;;;;5067914;28;19935;-66
2023/03/16 11:15:17;;;;;;;;;;;21.60;35.90;;;;;;5104749;28;19921;-72
2023/03/16 11:17:46;;;;;;;;;;;21.60;36.10;;;;;;5103365;28;19983;-71
2023/03/16 11:20:16;;;;;;;;;;;21.50;36.40;;;;;;5109529;28;19924;-71
2023/03/16 11:22:44;;;;;;;;;;;21.50;36.50;;;;;;5061580;28;20011;-72
2023/03/16 11:28:07;;;;;;;;;;;21.60;36.00;;;;;;5084757;27;19922;-73
2023/03/16 11:30:37;;;;;;;;;;;21.60;36.30;;;;;;5078016;28;19920;-73
2023/03/16 11:33:08;;;;;;;;;;;21.60;36.10;;;;;;5078258;28;20402;-73
2023/03/16 11:38:18;;;;;;;;;;;21.50;36.10;;;;;;5088636;27;19991;-72
2023/03/16 11:41:00;;;;;;;;;;;21.50;36.10;;;;;;5081266;28;19971;-70
2023/03/16 11:43:38;;;;;;;;;;;21.50;36.50;;;;;;5076922;28;20105;-79
2023/03/16 11:46:24;;;;;;;;;;;21.50;36.80;;;;;;5072336;28;20386;-70
2023/03/16 11:49:09;;;;;;;;;;;21.50;36.80;;;;;;5111644;27;19928;-74
2023/03/16 11:51:55;;;;;;;;;;;21.60;36.70;;;;;;5120110;27;19925;-69
2023/03/16 11:54:27;;;;;;;;;;;21.60;36.60;;;;;;5079491;28;19924;-69
2023/03/16 11:56:56;;;;;;;;;;;21.60;36.40;;;;;;5080755;28;20312;-69
2023/03/16 12:02:19;;;;;;;;;;;21.70;36.20;;;;;;5077976;27;20601;-70
2023/03/16 12:04:58;;;;;;;;;;;21.80;36.10;;;;;;5078735;28;20273;-69
2023/03/16 12:07:43;;;;;;;;;;;21.70;36.00;;;;;;5077161;28;19928;-68
2023/03/16 12:10:17;;;;;;;;;;;21.80;36.30;;;;;;5106922;28;19981;-70
2023/03/16 12:18:11;;;;;;;;;;;21.50;36.00;;;;;;5076063;27;19920;-65
2023/03/16 12:20:42;;;;;;;;;;;21.70;36.00;;;;;;5074634;28;20570;-69
2023/03/16 12:23:13;;;;;;;;;;;21.80;35.90;;;;;;5073774;28;20307;-68
2023/03/16 12:25:41;;;;;;;;;;;21.90;36.10;;;;;;5104107;28;19924;-70
2023/03/16 12:28:15;;;;;;;;;;;21.90;36.10;;;;;;5068908;28;20250;-70
2023/03/16 12:30:52;;;;;;;;;;;22.00;36.00;;;;;;5074090;28;19931;-68
2023/03/16 12:33:37;;;;;;;;;;;22.10;36.10;;;;;;5104029;28;19933;-71
2023/03/16 12:36:20;;;;;;;;;;;22.10;35.90;;;;;;5075953;28;20286;-66
2023/03/16 12:38:50;;;;;;;;;;;22.00;36.00;;;;;;5075752;28;20419;-65
2023/03/16 12:41:21;;;;;;;;;;;21.90;36.00;;;;;;5077395;28;19920;-70
2023/03/16 12:43:51;;;;;;;;;;;21.90;36.00;;;;;;5077652;28;20005;-68
2023/03/16 12:46:23;;;;;;;;;;;21.80;35.90;;;;;;5079594;28;20370;-73
2023/03/16 12:48:55;;;;;;;;;;;21.80;35.90;;;;;;5111819;28;19970;-70
2023/03/16 12:51:30;;;;;;;;;;;21.80;35.90;;;;;;5068821;28;19932;-72
2023/03/16 12:53:57;;;;;;;;;;;21.80;35.90;;;;;;5070748;28;20287;-68
2023/03/16 12:56:43;;;;;;;;;;;21.80;35.90;;;;;;5077493;28;19924;-69
2023/03/16 12:59:14;;;;;;;;;;;21.80;36.60;;;;;;5076055;28;19924;-68
2023/03/16 13:01:42;;;;;;;;;;;21.80;35.80;;;;;;5076358;28;19924;-69
2023/03/16 13:06:49;;;;;;;;;;;21.80;35.60;;;;;;5088723;27;19931;-71
2023/03/16 13:09:18;;;;;;;;;;;21.80;35.50;;;;;;5080524;28;19924;-69
2023/03/16 13:11:49;;;;;;;;;;;21.70;35.30;;;;;;5111540;27;20003;-69
2023/03/16 13:14:31;;;;;;;;;;;21.80;35.30;;;;;;5078559;28;19966;-73
2023/03/16 13:17:05;;;;;;;;;;;21.70;35.20;;;;;;5121123;27;20330;-69
2023/03/16 13:19:36;;;;;;;;;;;21.70;35.10;;;;;;5119587;27;20490;-69
2023/03/16 13:22:18;;;;;;;;;;;21.80;35.00;;;;;;5113850;27;19928;-70
2023/03/16 13:24:49;;;;;;;;;;;21.80;35.00;;;;;;5081137;28;19928;-71
2023/03/16 13:27:19;;;;;;;;;;;21.80;35.50;;;;;;5070458;28;19940;-75
2023/03/16 13:29:54;;;;;;;;;;;21.70;35.50;;;;;;5075276;28;20061;-73
2023/03/16 13:32:20;;;;;;;;;;;21.70;35.60;;;;;;5079747;28;19928;-73
2023/03/16 13:34:48;;;;;;;;;;;21.80;35.70;;;;;;5071599;28;20384;-70
2023/03/16 13:37:15;;;;;;;;;;;21.80;35.70;;;;;;5076801;28;20022;-76
2023/03/16 13:39:41;;;;;;;;;;;21.80;35.80;;;;;;5075808;28;19924;-77
2023/03/16 13:44:50;;;;;;;;;;;21.90;36.10;;;;;;5079034;27;20496;-71
2023/03/16 13:47:17;;;;;;;;;;;21.90;36.10;;;;;;5068253;28;19924;-73
2023/03/16 13:49:43;;;;;;;;;;;21.90;36.20;;;;;;5068527;28;19924;-70
2023/03/16 13:52:13;;;;;;;;;;;21.90;36.40;;;;;;5068465;28;19953;-71
2023/03/16 13:54:39;;;;;;;;;;;21.90;36.50;;;;;;5060415;28;19932;-69
2023/03/16 13:57:08;;;;;;;;;;;22.00;36.60;;;;;;5061718;28;19932;-73
2023/03/16 13:59:34;;;;;;;;;;;22.00;36.70;;;;;;5066493;28;19932;-74
2023/03/16 14:02:00;;;;;;;;;;;22.00;36.90;;;;;;5068221;28;19924;-72
2023/03/16 14:04:27;;;;;;;;;;;21.90;36.90;;;;;;5072031;28;19971;-71
2023/03/16 14:06:54;;;;;;;;;;;21.90;36.90;;;;;;5076172;28;19927;-72
2023/03/16 14:09:22;;;;;;;;;;;21.90;37.10;;;;;;5080425;28;20359;-71
2023/03/16 14:11:47;;;;;;;;;;;21.80;36.70;;;;;;5081745;28;19925;-69
2023/03/16 14:14:15;;;;;;;;;;;21.70;36.90;;;;;;5080686;28;19935;-70
2023/03/16 14:16:41;;;;;;;;;;;21.60;36.90;;;;;;5082259;28;20019;-70
2023/03/16 14:19:11;;;;;;;;;;;21.60;37.00;;;;;;5086335;28;19931;-72
2023/03/16 14:21:42;;;;;;;;;;;21.50;37.10;;;;;;5077806;28;20011;-69
2023/03/16 14:24:31;;;;;;;;;;;21.50;36.90;;;;;;5082244;28;19978;-70
2023/03/16 14:26:57;;;;;;;;;;;21.40;37.10;;;;;;5081714;28;20011;-69
2023/03/16 14:29:27;;;;;;;;;;;21.40;37.00;;;;;;5083911;28;19921;-70
2023/03/16 14:31:53;;;;;;;;;;;21.40;36.90;;;;;;5083685;28;19920;-70
2023/03/16 14:37:08;;;;;;;;;;;21.40;36.80;;;;;;5127683;27;19916;-70
2023/03/16 14:39:34;;;;;;;;;;;21.40;36.80;;;;;;5125735;28;19926;-70
2023/03/16 14:42:01;;;;;;;;;;;21.40;37.60;;;;;;5123905;28;19923;-68
2023/03/16 14:44:31;;;;;;;;;;;21.40;36.70;;;;;;5127008;28;20275;-70
2023/03/16 14:46:58;;;;;;;;;;;21.40;36.80;;;;;;5127664;28;19926;-70
2023/03/16 14:52:06;;;;;;;;;;;21.40;36.60;;;;;;5104795;27;19912;-69
2023/03/16 14:54:32;;;;;;;;;;;21.40;36.50;;;;;;5084638;28;20027;-69
2023/03/16 14:57:00;;;;;;;;;;;21.40;36.20;;;;;;5083273;28;20011;-69
2023/03/16 14:59:26;;;;;;;;;;;21.50;36.50;;;;;;5083544;28;19920;-68
2023/03/16 15:01:53;;;;;;;;;;;21.50;36.50;;;;;;5083512;28;19920;-69
2023/03/16 15:04:24;;;;;;;;;;;21.50;36.50;;;;;;5110810;28;19974;-71